sensor_id;sensor_type;location;lat;lon;timestamp;P1;durP1;ratioP1;P2;durP2;ratioP2
20454;SDS011;10386;54.314;10.022;2023-06-26T00:00:52;5.53;;;3.78;;
20454;SDS011;10386;54.314;10.022;2023-06-26T00:03:19;4.10;;;3.70;;
20454;SDS011;10386;54.314;10.022;2023-06-26T00:05:46;4.18;;;3.72;;
20454;SDS011;10386;54.314;10.022;2023-06-26T00:08:13;5.70;;;3.75;;
20454;SDS011;10386;54.314;10.022;2023-06-26T00:10:39;5.43;;;3.72;;
20454;SDS011;10386;54.314;10.022;2023-06-26T00:13:06;4.30;;;3.70;;
20454;SDS011;10386;54.314;10.022;2023-06-26T00:15:33;5.45;;;3.75;;
20454;SDS011;10386;54.314;10.022;2023-06-26T00:18:00;6.28;;;3.95;;
20454;SDS011;10386;54.314;10.022;2023-06-26T00:20:27;4.63;;;3.92;;
20454;SDS011;10386;54.314;10.022;2023-06-26T00:22:53;4.15;;;3.75;;
20454;SDS011;10386;54.314;10.022;2023-06-26T00:25:21;5.22;;;4.10;;
20454;SDS011;10386;54.314;10.022;2023-06-26T00:27:48;6.28;;;3.95;;
20454;SDS011;10386;54.314;10.022;2023-06-26T00:30:15;5.07;;;3.60;;
20454;SDS011;10386;54.314;10.022;2023-06-26T00:32:41;5.88;;;3.70;;
20454;SDS011;10386;54.314;10.022;2023-06-26T00:35:08;4.70;;;3.80;;
20454;SDS011;10386;54.314;10.022;2023-06-26T00:37:35;5.32;;;4.20;;
20454;SDS011;10386;54.314;10.022;2023-06-26T00:40:02;5.90;;;4.20;;
20454;SDS011;10386;54.314;10.022;2023-06-26T00:42:32;4.40;;;3.95;;
20454;SDS011;10386;54.314;10.022;2023-06-26T00:44:58;4.50;;;3.70;;
20454;SDS011;10386;54.314;10.022;2023-06-26T00:47:25;6.70;;;4.10;;
20454;SDS011;10386;54.314;10.022;2023-06-26T00:49:53;7.00;;;3.92;;
20454;SDS011;10386;54.314;10.022;2023-06-26T00:52:21;5.45;;;3.90;;
20454;SDS011;10386;54.314;10.022;2023-06-26T00:54:50;7.15;;;4.50;;
20454;SDS011;10386;54.314;10.022;2023-06-26T00:57:18;6.38;;;4.28;;
20454;SDS011;10386;54.314;10.022;2023-06-26T00:59:45;4.75;;;3.90;;
20454;SDS011;10386;54.314;10.022;2023-06-26T01:02:12;4.88;;;4.07;;
20454;SDS011;10386;54.314;10.022;2023-06-26T01:04:39;6.55;;;4.15;;
20454;SDS011;10386;54.314;10.022;2023-06-26T01:07:13;6.60;;;4.43;;
20454;SDS011;10386;54.314;10.022;2023-06-26T01:09:42;5.75;;;3.95;;
20454;SDS011;10386;54.314;10.022;2023-06-26T01:12:09;5.68;;;4.25;;
20454;SDS011;10386;54.314;10.022;2023-06-26T01:14:35;5.95;;;4.50;;
20454;SDS011;10386;54.314;10.022;2023-06-26T01:17:03;5.05;;;4.20;;
20454;SDS011;10386;54.314;10.022;2023-06-26T01:19:30;5.88;;;4.50;;
20454;SDS011;10386;54.314;10.022;2023-06-26T01:22:02;5.18;;;4.32;;
20454;SDS011;10386;54.314;10.022;2023-06-26T01:24:44;6.38;;;4.53;;
20454;SDS011;10386;54.314;10.022;2023-06-26T01:27:20;4.93;;;4.40;;
20454;SDS011;10386;54.314;10.022;2023-06-26T01:29:49;8.38;;;4.82;;
20454;SDS011;10386;54.314;10.022;2023-06-26T01:32:18;6.80;;;5.13;;
20454;SDS011;10386;54.314;10.022;2023-06-26T01:34:45;6.47;;;4.70;;
20454;SDS011;10386;54.314;10.022;2023-06-26T01:37:12;5.05;;;4.25;;
20454;SDS011;10386;54.314;10.022;2023-06-26T01:39:38;5.43;;;4.55;;
20454;SDS011;10386;54.314;10.022;2023-06-26T01:42:05;7.15;;;4.78;;
20454;SDS011;10386;54.314;10.022;2023-06-26T01:44:33;6.13;;;5.05;;
20454;SDS011;10386;54.314;10.022;2023-06-26T01:47:03;7.00;;;5.20;;
20454;SDS011;10386;54.314;10.022;2023-06-26T01:52:16;7.15;;;5.13;;
20454;SDS011;10386;54.314;10.022;2023-06-26T01:57:27;7.03;;;4.80;;
20454;SDS011;10386;54.314;10.022;2023-06-26T01:59:57;7.25;;;5.25;;
20454;SDS011;10386;54.314;10.022;2023-06-26T02:02:25;8.88;;;5.32;;
20454;SDS011;10386;54.314;10.022;2023-06-26T02:04:52;6.95;;;5.35;;
20454;SDS011;10386;54.314;10.022;2023-06-26T02:07:19;8.55;;;5.35;;
20454;SDS011;10386;54.314;10.022;2023-06-26T02:09:46;8.73;;;5.82;;
20454;SDS011;10386;54.314;10.022;2023-06-26T02:12:13;8.52;;;5.40;;
20454;SDS011;10386;54.314;10.022;2023-06-26T02:14:40;7.13;;;5.50;;
20454;SDS011;10386;54.314;10.022;2023-06-26T02:17:06;7.22;;;5.60;;
20454;SDS011;10386;54.314;10.022;2023-06-26T02:19:35;7.35;;;5.60;;
20454;SDS011;10386;54.314;10.022;2023-06-26T02:22:01;7.90;;;5.40;;
20454;SDS011;10386;54.314;10.022;2023-06-26T02:24:28;8.68;;;6.38;;
20454;SDS011;10386;54.314;10.022;2023-06-26T02:26:56;10.82;;;5.97;;
20454;SDS011;10386;54.314;10.022;2023-06-26T02:29:23;7.13;;;5.70;;
20454;SDS011;10386;54.314;10.022;2023-06-26T02:31:50;8.10;;;5.60;;
20454;SDS011;10386;54.314;10.022;2023-06-26T02:34:17;8.75;;;6.15;;
20454;SDS011;10386;54.314;10.022;2023-06-26T02:36:44;7.20;;;5.85;;
20454;SDS011;10386;54.314;10.022;2023-06-26T02:39:10;8.45;;;6.13;;
20454;SDS011;10386;54.314;10.022;2023-06-26T02:41:37;9.25;;;5.97;;
20454;SDS011;10386;54.314;10.022;2023-06-26T02:44:04;7.57;;;5.80;;
20454;SDS011;10386;54.314;10.022;2023-06-26T02:46:31;7.65;;;5.78;;
20454;SDS011;10386;54.314;10.022;2023-06-26T02:48:58;8.05;;;6.57;;
20454;SDS011;10386;54.314;10.022;2023-06-26T02:51:25;9.88;;;5.95;;
20454;SDS011;10386;54.314;10.022;2023-06-26T02:53:52;7.88;;;5.93;;
20454;SDS011;10386;54.314;10.022;2023-06-26T02:56:19;10.65;;;5.90;;
20454;SDS011;10386;54.314;10.022;2023-06-26T02:58:45;8.80;;;6.60;;
20454;SDS011;10386;54.314;10.022;2023-06-26T03:01:12;8.35;;;6.28;;
20454;SDS011;10386;54.314;10.022;2023-06-26T03:03:43;10.35;;;6.30;;
20454;SDS011;10386;54.314;10.022;2023-06-26T03:06:09;8.63;;;6.53;;
20454;SDS011;10386;54.314;10.022;2023-06-26T03:08:36;8.73;;;6.38;;
20454;SDS011;10386;54.314;10.022;2023-06-26T03:11:08;10.90;;;6.82;;
20454;SDS011;10386;54.314;10.022;2023-06-26T03:13:36;8.15;;;5.95;;
20454;SDS011;10386;54.314;10.022;2023-06-26T03:16:03;7.75;;;6.53;;
20454;SDS011;10386;54.314;10.022;2023-06-26T03:18:30;7.43;;;5.78;;
20454;SDS011;10386;54.314;10.022;2023-06-26T03:20:57;8.23;;;6.43;;
20454;SDS011;10386;54.314;10.022;2023-06-26T03:23:24;9.80;;;6.80;;
20454;SDS011;10386;54.314;10.022;2023-06-26T03:25:51;9.25;;;7.13;;
20454;SDS011;10386;54.314;10.022;2023-06-26T03:28:18;10.27;;;6.60;;
20454;SDS011;10386;54.314;10.022;2023-06-26T03:30:44;9.82;;;6.38;;
20454;SDS011;10386;54.314;10.022;2023-06-26T03:33:11;11.52;;;6.47;;
20454;SDS011;10386;54.314;10.022;2023-06-26T03:35:38;7.78;;;5.82;;
20454;SDS011;10386;54.314;10.022;2023-06-26T03:38:05;7.15;;;6.10;;
20454;SDS011;10386;54.314;10.022;2023-06-26T03:40:32;12.57;;;6.60;;
20454;SDS011;10386;54.314;10.022;2023-06-26T03:42:58;8.27;;;5.82;;
20454;SDS011;10386;54.314;10.022;2023-06-26T03:45:25;7.47;;;5.93;;
20454;SDS011;10386;54.314;10.022;2023-06-26T03:47:52;9.65;;;6.80;;
20454;SDS011;10386;54.314;10.022;2023-06-26T03:50:19;8.60;;;6.13;;
20454;SDS011;10386;54.314;10.022;2023-06-26T03:52:46;9.85;;;6.80;;
20454;SDS011;10386;54.314;10.022;2023-06-26T03:55:13;9.52;;;6.30;;
20454;SDS011;10386;54.314;10.022;2023-06-26T03:57:39;9.73;;;6.65;;
20454;SDS011;10386;54.314;10.022;2023-06-26T04:00:06;7.22;;;6.32;;
20454;SDS011;10386;54.314;10.022;2023-06-26T04:02:35;9.80;;;6.55;;
20454;SDS011;10386;54.314;10.022;2023-06-26T04:05:01;7.38;;;6.38;;
20454;SDS011;10386;54.314;10.022;2023-06-26T04:07:30;9.85;;;6.70;;
20454;SDS011;10386;54.314;10.022;2023-06-26T04:09:59;8.57;;;6.80;;
20454;SDS011;10386;54.314;10.022;2023-06-26T04:12:26;11.68;;;6.85;;
20454;SDS011;10386;54.314;10.022;2023-06-26T04:14:52;7.95;;;6.30;;
20454;SDS011;10386;54.314;10.022;2023-06-26T04:17:19;8.90;;;5.50;;
20454;SDS011;10386;54.314;10.022;2023-06-26T04:19:47;9.43;;;6.32;;
20454;SDS011;10386;54.314;10.022;2023-06-26T04:22:13;7.78;;;5.80;;
20454;SDS011;10386;54.314;10.022;2023-06-26T04:24:40;8.35;;;5.25;;
20454;SDS011;10386;54.314;10.022;2023-06-26T04:27:07;6.40;;;5.40;;
20454;SDS011;10386;54.314;10.022;2023-06-26T04:29:34;7.38;;;5.85;;
20454;SDS011;10386;54.314;10.022;2023-06-26T04:32:01;7.93;;;6.05;;
20454;SDS011;10386;54.314;10.022;2023-06-26T04:34:27;7.57;;;6.05;;
20454;SDS011;10386;54.314;10.022;2023-06-26T04:36:54;6.43;;;5.50;;
20454;SDS011;10386;54.314;10.022;2023-06-26T04:39:21;7.07;;;5.78;;
20454;SDS011;10386;54.314;10.022;2023-06-26T04:41:48;7.68;;;5.88;;
20454;SDS011;10386;54.314;10.022;2023-06-26T04:44:15;7.95;;;5.93;;
20454;SDS011;10386;54.314;10.022;2023-06-26T04:46:42;6.68;;;5.82;;
20454;SDS011;10386;54.314;10.022;2023-06-26T04:49:09;7.03;;;6.00;;
20454;SDS011;10386;54.314;10.022;2023-06-26T04:51:36;9.40;;;5.85;;
20454;SDS011;10386;54.314;10.022;2023-06-26T04:54:07;9.38;;;6.28;;
20454;SDS011;10386;54.314;10.022;2023-06-26T04:56:34;10.23;;;6.75;;
20454;SDS011;10386;54.314;10.022;2023-06-26T04:59:02;9.68;;;6.07;;
20454;SDS011;10386;54.314;10.022;2023-06-26T05:01:29;13.05;;;7.15;;
20454;SDS011;10386;54.314;10.022;2023-06-26T05:03:56;10.65;;;6.32;;
20454;SDS011;10386;54.314;10.022;2023-06-26T05:06:23;8.07;;;6.30;;
20454;SDS011;10386;54.314;10.022;2023-06-26T05:08:50;9.43;;;5.97;;
20454;SDS011;10386;54.314;10.022;2023-06-26T05:11:17;6.95;;;5.97;;
20454;SDS011;10386;54.314;10.022;2023-06-26T05:13:43;10.02;;;6.40;;
20454;SDS011;10386;54.314;10.022;2023-06-26T05:16:10;8.18;;;5.88;;
20454;SDS011;10386;54.314;10.022;2023-06-26T05:18:37;12.20;;;6.40;;
20454;SDS011;10386;54.314;10.022;2023-06-26T05:21:04;8.85;;;6.28;;
20454;SDS011;10386;54.314;10.022;2023-06-26T05:23:31;7.00;;;6.05;;
20454;SDS011;10386;54.314;10.022;2023-06-26T05:26:02;8.27;;;6.28;;
20454;SDS011;10386;54.314;10.022;2023-06-26T05:28:30;9.02;;;6.20;;
20454;SDS011;10386;54.314;10.022;2023-06-26T05:30:57;9.55;;;6.30;;
20454;SDS011;10386;54.314;10.022;2023-06-26T05:33:25;8.43;;;5.70;;
20454;SDS011;10386;54.314;10.022;2023-06-26T05:35:53;13.27;;;6.32;;
20454;SDS011;10386;54.314;10.022;2023-06-26T05:38:20;8.75;;;6.20;;
20454;SDS011;10386;54.314;10.022;2023-06-26T05:40:47;7.70;;;6.30;;
20454;SDS011;10386;54.314;10.022;2023-06-26T05:43:14;7.70;;;6.20;;
20454;SDS011;10386;54.314;10.022;2023-06-26T05:45:41;6.97;;;6.03;;
20454;SDS011;10386;54.314;10.022;2023-06-26T05:48:08;8.95;;;5.90;;
20454;SDS011;10386;54.314;10.022;2023-06-26T05:50:35;9.90;;;6.70;;
20454;SDS011;10386;54.314;10.022;2023-06-26T05:53:03;8.32;;;5.80;;
20454;SDS011;10386;54.314;10.022;2023-06-26T05:55:30;7.88;;;5.78;;
20454;SDS011;10386;54.314;10.022;2023-06-26T05:57:57;8.57;;;5.95;;
20454;SDS011;10386;54.314;10.022;2023-06-26T06:00:26;10.27;;;6.03;;
20454;SDS011;10386;54.314;10.022;2023-06-26T06:02:53;7.70;;;6.18;;
20454;SDS011;10386;54.314;10.022;2023-06-26T06:05:21;9.02;;;5.90;;
20454;SDS011;10386;54.314;10.022;2023-06-26T06:07:49;7.07;;;5.95;;
20454;SDS011;10386;54.314;10.022;2023-06-26T06:10:16;6.88;;;5.95;;
20454;SDS011;10386;54.314;10.022;2023-06-26T06:12:43;7.20;;;5.78;;
20454;SDS011;10386;54.314;10.022;2023-06-26T06:15:09;13.13;;;5.72;;
20454;SDS011;10386;54.314;10.022;2023-06-26T06:17:36;11.07;;;5.55;;
20454;SDS011;10386;54.314;10.022;2023-06-26T06:20:03;9.45;;;5.90;;
20454;SDS011;10386;54.314;10.022;2023-06-26T06:22:30;6.28;;;5.43;;
20454;SDS011;10386;54.314;10.022;2023-06-26T06:24:57;7.20;;;5.95;;
20454;SDS011;10386;54.314;10.022;2023-06-26T06:27:24;7.00;;;5.72;;
20454;SDS011;10386;54.314;10.022;2023-06-26T06:29:52;8.40;;;5.75;;
20454;SDS011;10386;54.314;10.022;2023-06-26T06:32:18;6.13;;;5.22;;
20454;SDS011;10386;54.314;10.022;2023-06-26T06:34:45;6.72;;;5.60;;
20454;SDS011;10386;54.314;10.022;2023-06-26T06:37:12;7.88;;;5.80;;
20454;SDS011;10386;54.314;10.022;2023-06-26T06:39:39;8.70;;;5.32;;
20454;SDS011;10386;54.314;10.022;2023-06-26T06:42:05;8.85;;;5.13;;
20454;SDS011;10386;54.314;10.022;2023-06-26T06:44:32;7.55;;;5.75;;
20454;SDS011;10386;54.314;10.022;2023-06-26T06:46:59;6.90;;;5.40;;
20454;SDS011;10386;54.314;10.022;2023-06-26T06:49:26;6.10;;;5.22;;
20454;SDS011;10386;54.314;10.022;2023-06-26T06:51:52;5.85;;;5.25;;
20454;SDS011;10386;54.314;10.022;2023-06-26T06:54:19;7.45;;;5.45;;
20454;SDS011;10386;54.314;10.022;2023-06-26T06:56:46;10.90;;;5.55;;
20454;SDS011;10386;54.314;10.022;2023-06-26T06:59:12;7.07;;;5.55;;
20454;SDS011;10386;54.314;10.022;2023-06-26T07:01:39;6.00;;;5.10;;
20454;SDS011;10386;54.314;10.022;2023-06-26T07:04:06;7.47;;;5.47;;
20454;SDS011;10386;54.314;10.022;2023-06-26T07:06:33;8.50;;;5.28;;
20454;SDS011;10386;54.314;10.022;2023-06-26T07:09:00;8.68;;;5.50;;
20454;SDS011;10386;54.314;10.022;2023-06-26T07:11:27;7.95;;;5.43;;
20454;SDS011;10386;54.314;10.022;2023-06-26T07:13:55;6.00;;;5.05;;
20454;SDS011;10386;54.314;10.022;2023-06-26T07:16:22;6.95;;;5.10;;
20454;SDS011;10386;54.314;10.022;2023-06-26T07:18:48;7.22;;;5.13;;
20454;SDS011;10386;54.314;10.022;2023-06-26T07:21:16;8.52;;;5.90;;
20454;SDS011;10386;54.314;10.022;2023-06-26T07:23:43;9.15;;;5.82;;
20454;SDS011;10386;54.314;10.022;2023-06-26T07:26:09;8.38;;;5.35;;
20454;SDS011;10386;54.314;10.022;2023-06-26T07:28:36;5.97;;;5.22;;
20454;SDS011;10386;54.314;10.022;2023-06-26T07:31:03;6.88;;;5.25;;
20454;SDS011;10386;54.314;10.022;2023-06-26T07:33:29;9.50;;;5.45;;
20454;SDS011;10386;54.314;10.022;2023-06-26T07:35:56;6.20;;;5.35;;
20454;SDS011;10386;54.314;10.022;2023-06-26T07:38:23;10.35;;;5.60;;
20454;SDS011;10386;54.314;10.022;2023-06-26T07:40:49;10.05;;;6.10;;
20454;SDS011;10386;54.314;10.022;2023-06-26T07:43:16;5.35;;;4.85;;
20454;SDS011;10386;54.314;10.022;2023-06-26T07:45:43;5.65;;;5.07;;
20454;SDS011;10386;54.314;10.022;2023-06-26T07:48:10;8.65;;;5.53;;
20454;SDS011;10386;54.314;10.022;2023-06-26T07:50:37;6.07;;;5.18;;
20454;SDS011;10386;54.314;10.022;2023-06-26T07:53:04;6.60;;;5.55;;
20454;SDS011;10386;54.314;10.022;2023-06-26T07:55:32;6.65;;;4.55;;
20454;SDS011;10386;54.314;10.022;2023-06-26T07:57:58;6.22;;;5.43;;
20454;SDS011;10386;54.314;10.022;2023-06-26T08:00:25;6.93;;;5.70;;
20454;SDS011;10386;54.314;10.022;2023-06-26T08:02:52;8.65;;;5.57;;
20454;SDS011;10386;54.314;10.022;2023-06-26T08:05:19;7.40;;;5.30;;
20454;SDS011;10386;54.314;10.022;2023-06-26T08:07:46;7.18;;;5.90;;
20454;SDS011;10386;54.314;10.022;2023-06-26T08:10:13;7.43;;;5.38;;
20454;SDS011;10386;54.314;10.022;2023-06-26T08:12:40;8.30;;;5.40;;
20454;SDS011;10386;54.314;10.022;2023-06-26T08:15:09;9.20;;;5.15;;
20454;SDS011;10386;54.314;10.022;2023-06-26T08:17:37;6.25;;;5.15;;
20454;SDS011;10386;54.314;10.022;2023-06-26T08:20:04;6.68;;;5.57;;
20454;SDS011;10386;54.314;10.022;2023-06-26T08:22:35;8.88;;;5.63;;
20454;SDS011;10386;54.314;10.022;2023-06-26T08:25:02;8.30;;;5.20;;
20454;SDS011;10386;54.314;10.022;2023-06-26T08:27:31;7.35;;;5.03;;
20454;SDS011;10386;54.314;10.022;2023-06-26T08:29:58;7.72;;;5.35;;
20454;SDS011;10386;54.314;10.022;2023-06-26T08:32:25;5.90;;;5.30;;
20454;SDS011;10386;54.314;10.022;2023-06-26T08:34:51;8.60;;;5.43;;
20454;SDS011;10386;54.314;10.022;2023-06-26T08:37:18;5.88;;;5.10;;
20454;SDS011;10386;54.314;10.022;2023-06-26T08:39:45;6.95;;;5.72;;
20454;SDS011;10386;54.314;10.022;2023-06-26T08:42:11;6.63;;;5.20;;
20454;SDS011;10386;54.314;10.022;2023-06-26T08:44:38;6.80;;;5.38;;
20454;SDS011;10386;54.314;10.022;2023-06-26T08:47:22;6.40;;;5.10;;
20454;SDS011;10386;54.314;10.022;2023-06-26T08:49:53;6.65;;;5.50;;
20454;SDS011;10386;54.314;10.022;2023-06-26T08:52:28;8.40;;;5.30;;
20454;SDS011;10386;54.314;10.022;2023-06-26T08:55:00;5.38;;;4.88;;
20454;SDS011;10386;54.314;10.022;2023-06-26T08:57:29;8.93;;;6.30;;
20454;SDS011;10386;54.314;10.022;2023-06-26T08:59:58;8.40;;;5.63;;
20454;SDS011;10386;54.314;10.022;2023-06-26T09:02:25;7.97;;;5.47;;
20454;SDS011;10386;54.314;10.022;2023-06-26T09:04:52;9.40;;;5.90;;
20454;SDS011;10386;54.314;10.022;2023-06-26T09:07:18;13.35;;;6.13;;
20454;SDS011;10386;54.314;10.022;2023-06-26T09:09:45;7.78;;;6.10;;
20454;SDS011;10386;54.314;10.022;2023-06-26T09:12:12;8.45;;;6.38;;
20454;SDS011;10386;54.314;10.022;2023-06-26T09:14:39;10.93;;;6.70;;
20454;SDS011;10386;54.314;10.022;2023-06-26T09:17:07;15.77;;;6.53;;
20454;SDS011;10386;54.314;10.022;2023-06-26T09:19:36;10.85;;;6.63;;
20454;SDS011;10386;54.314;10.022;2023-06-26T09:22:04;13.20;;;7.68;;
20454;SDS011;10386;54.314;10.022;2023-06-26T09:24:37;9.35;;;7.47;;
20454;SDS011;10386;54.314;10.022;2023-06-26T09:27:04;18.48;;;8.93;;
20454;SDS011;10386;54.314;10.022;2023-06-26T09:29:30;19.42;;;10.38;;
20454;SDS011;10386;54.314;10.022;2023-06-26T09:31:59;22.92;;;11.73;;
20454;SDS011;10386;54.314;10.022;2023-06-26T09:34:32;15.40;;;10.43;;
20454;SDS011;10386;54.314;10.022;2023-06-26T09:36:59;15.65;;;10.20;;
20454;SDS011;10386;54.314;10.022;2023-06-26T09:39:32;12.90;;;9.10;;
20454;SDS011;10386;54.314;10.022;2023-06-26T09:41:58;11.98;;;6.60;;
20454;SDS011;10386;54.314;10.022;2023-06-26T09:44:25;10.18;;;5.68;;
20454;SDS011;10386;54.314;10.022;2023-06-26T09:46:52;11.55;;;6.13;;
20454;SDS011;10386;54.314;10.022;2023-06-26T09:49:23;10.02;;;5.82;;
20454;SDS011;10386;54.314;10.022;2023-06-26T09:51:49;11.75;;;5.68;;
20454;SDS011;10386;54.314;10.022;2023-06-26T09:54:17;13.63;;;5.97;;
20454;SDS011;10386;54.314;10.022;2023-06-26T09:56:44;8.45;;;5.35;;
20454;SDS011;10386;54.314;10.022;2023-06-26T09:59:11;13.88;;;6.15;;
20454;SDS011;10386;54.314;10.022;2023-06-26T10:01:45;11.07;;;5.68;;
20454;SDS011;10386;54.314;10.022;2023-06-26T10:04:13;8.95;;;5.25;;
20454;SDS011;10386;54.314;10.022;2023-06-26T10:06:42;11.23;;;5.20;;
20454;SDS011;10386;54.314;10.022;2023-06-26T10:09:14;12.93;;;5.10;;
20454;SDS011;10386;54.314;10.022;2023-06-26T10:11:49;11.00;;;5.88;;
20454;SDS011;10386;54.314;10.022;2023-06-26T10:14:21;14.00;;;6.20;;
20454;SDS011;10386;54.314;10.022;2023-06-26T10:16:52;13.13;;;5.95;;
20454;SDS011;10386;54.314;10.022;2023-06-26T10:19:25;9.52;;;5.40;;
20454;SDS011;10386;54.314;10.022;2023-06-26T10:21:54;15.13;;;5.97;;
20454;SDS011;10386;54.314;10.022;2023-06-26T10:24:22;13.45;;;5.70;;
20454;SDS011;10386;54.314;10.022;2023-06-26T10:26:52;12.20;;;5.70;;
20454;SDS011;10386;54.314;10.022;2023-06-26T10:29:25;10.00;;;6.22;;
20454;SDS011;10386;54.314;10.022;2023-06-26T10:31:54;12.07;;;6.15;;
20454;SDS011;10386;54.314;10.022;2023-06-26T10:34:24;13.48;;;6.50;;
20454;SDS011;10386;54.314;10.022;2023-06-26T10:36:58;10.48;;;6.15;;
20454;SDS011;10386;54.314;10.022;2023-06-26T10:39:26;11.68;;;6.38;;
20454;SDS011;10386;54.314;10.022;2023-06-26T10:41:54;14.65;;;6.45;;
20454;SDS011;10386;54.314;10.022;2023-06-26T10:44:39;12.52;;;6.30;;
20454;SDS011;10386;54.314;10.022;2023-06-26T10:47:08;10.50;;;6.68;;
20454;SDS011;10386;54.314;10.022;2023-06-26T10:49:36;17.08;;;6.72;;
20454;SDS011;10386;54.314;10.022;2023-06-26T10:52:05;13.05;;;6.32;;
20454;SDS011;10386;54.314;10.022;2023-06-26T10:54:32;9.98;;;6.25;;
20454;SDS011;10386;54.314;10.022;2023-06-26T10:57:02;13.35;;;6.20;;
20454;SDS011;10386;54.314;10.022;2023-06-26T10:59:29;14.73;;;7.30;;
20454;SDS011;10386;54.314;10.022;2023-06-26T11:01:57;11.57;;;6.68;;
20454;SDS011;10386;54.314;10.022;2023-06-26T11:07:25;14.63;;;7.68;;
20454;SDS011;10386;54.314;10.022;2023-06-26T11:09:53;11.30;;;6.65;;
20454;SDS011;10386;54.314;10.022;2023-06-26T11:15:20;15.32;;;7.45;;
20454;SDS011;10386;54.314;10.022;2023-06-26T11:17:47;11.40;;;7.03;;
20454;SDS011;10386;54.314;10.022;2023-06-26T11:20:16;13.30;;;8.00;;
20454;SDS011;10386;54.314;10.022;2023-06-26T11:22:44;12.73;;;7.63;;
20454;SDS011;10386;54.314;10.022;2023-06-26T11:25:10;15.50;;;7.57;;
20454;SDS011;10386;54.314;10.022;2023-06-26T11:30:05;15.60;;;8.45;;
20454;SDS011;10386;54.314;10.022;2023-06-26T11:32:33;14.65;;;7.32;;
20454;SDS011;10386;54.314;10.022;2023-06-26T11:35:00;12.82;;;7.05;;
20454;SDS011;10386;54.314;10.022;2023-06-26T11:37:27;14.73;;;7.00;;
20454;SDS011;10386;54.314;10.022;2023-06-26T11:39:54;11.80;;;6.93;;
20454;SDS011;10386;54.314;10.022;2023-06-26T11:42:21;18.85;;;6.13;;
20454;SDS011;10386;54.314;10.022;2023-06-26T11:44:48;13.13;;;5.85;;
20454;SDS011;10386;54.314;10.022;2023-06-26T11:47:15;10.23;;;5.68;;
20454;SDS011;10386;54.314;10.022;2023-06-26T11:49:44;10.80;;;5.65;;
20454;SDS011;10386;54.314;10.022;2023-06-26T11:52:12;20.02;;;5.63;;
20454;SDS011;10386;54.314;10.022;2023-06-26T11:54:40;17.10;;;5.38;;
20454;SDS011;10386;54.314;10.022;2023-06-26T11:57:15;8.75;;;3.83;;
20454;SDS011;10386;54.314;10.022;2023-06-26T11:59:42;10.25;;;3.85;;
20454;SDS011;10386;54.314;10.022;2023-06-26T12:02:15;11.18;;;2.95;;
20454;SDS011;10386;54.314;10.022;2023-06-26T12:04:42;7.47;;;2.53;;
20454;SDS011;10386;54.314;10.022;2023-06-26T12:07:11;10.55;;;2.58;;
20454;SDS011;10386;54.314;10.022;2023-06-26T12:09:40;9.45;;;2.65;;
20454;SDS011;10386;54.314;10.022;2023-06-26T12:12:10;9.88;;;2.95;;
20454;SDS011;10386;54.314;10.022;2023-06-26T12:14:38;5.82;;;2.30;;
20454;SDS011;10386;54.314;10.022;2023-06-26T12:17:11;5.47;;;1.90;;
20454;SDS011;10386;54.314;10.022;2023-06-26T12:19:43;5.43;;;1.92;;
20454;SDS011;10386;54.314;10.022;2023-06-26T12:22:11;10.13;;;2.30;;
20454;SDS011;10386;54.314;10.022;2023-06-26T12:24:38;5.40;;;2.33;;
20454;SDS011;10386;54.314;10.022;2023-06-26T12:27:09;10.00;;;2.10;;
20454;SDS011;10386;54.314;10.022;2023-06-26T12:29:37;6.75;;;2.20;;
20454;SDS011;10386;54.314;10.022;2023-06-26T12:32:08;6.53;;;2.15;;
20454;SDS011;10386;54.314;10.022;2023-06-26T12:34:37;10.82;;;2.33;;
20454;SDS011;10386;54.314;10.022;2023-06-26T12:37:06;11.48;;;2.30;;
20454;SDS011;10386;54.314;10.022;2023-06-26T12:39:46;6.72;;;2.35;;
20454;SDS011;10386;54.314;10.022;2023-06-26T12:42:14;7.22;;;2.58;;
20454;SDS011;10386;54.314;10.022;2023-06-26T12:44:42;7.43;;;2.35;;
20454;SDS011;10386;54.314;10.022;2023-06-26T12:47:09;10.38;;;2.40;;
20454;SDS011;10386;54.314;10.022;2023-06-26T12:49:40;4.93;;;2.13;;
20454;SDS011;10386;54.314;10.022;2023-06-26T12:52:10;7.57;;;2.28;;
20454;SDS011;10386;54.314;10.022;2023-06-26T12:54:40;4.68;;;2.28;;
20454;SDS011;10386;54.314;10.022;2023-06-26T12:57:08;8.02;;;2.10;;
20454;SDS011;10386;54.314;10.022;2023-06-26T12:59:36;7.38;;;2.63;;
20454;SDS011;10386;54.314;10.022;2023-06-26T13:02:04;6.65;;;1.77;;
20454;SDS011;10386;54.314;10.022;2023-06-26T13:04:32;4.28;;;2.00;;
20454;SDS011;10386;54.314;10.022;2023-06-26T13:06:59;5.38;;;1.83;;
20454;SDS011;10386;54.314;10.022;2023-06-26T13:09:26;4.47;;;2.10;;
20454;SDS011;10386;54.314;10.022;2023-06-26T13:11:53;4.55;;;2.10;;
20454;SDS011;10386;54.314;10.022;2023-06-26T13:14:20;4.63;;;1.60;;
20454;SDS011;10386;54.314;10.022;2023-06-26T13:16:47;5.20;;;2.10;;
20454;SDS011;10386;54.314;10.022;2023-06-26T13:19:14;7.57;;;2.05;;
20454;SDS011;10386;54.314;10.022;2023-06-26T13:21:41;6.28;;;1.95;;
20454;SDS011;10386;54.314;10.022;2023-06-26T13:24:08;2.53;;;1.40;;
20454;SDS011;10386;54.314;10.022;2023-06-26T13:26:35;5.28;;;1.80;;
20454;SDS011;10386;54.314;10.022;2023-06-26T13:29:04;6.78;;;2.53;;
20454;SDS011;10386;54.314;10.022;2023-06-26T13:31:31;5.28;;;2.20;;
20454;SDS011;10386;54.314;10.022;2023-06-26T13:33:59;6.13;;;1.90;;
20454;SDS011;10386;54.314;10.022;2023-06-26T13:36:26;6.50;;;1.83;;
20454;SDS011;10386;54.314;10.022;2023-06-26T13:38:54;5.68;;;1.83;;
20454;SDS011;10386;54.314;10.022;2023-06-26T13:41:23;7.25;;;2.20;;
20454;SDS011;10386;54.314;10.022;2023-06-26T13:43:51;4.78;;;1.77;;
20454;SDS011;10386;54.314;10.022;2023-06-26T13:46:21;4.15;;;1.75;;
20454;SDS011;10386;54.314;10.022;2023-06-26T13:48:48;6.68;;;2.13;;
20454;SDS011;10386;54.314;10.022;2023-06-26T13:51:15;3.45;;;1.83;;
20454;SDS011;10386;54.314;10.022;2023-06-26T13:53:42;4.97;;;1.45;;
20454;SDS011;10386;54.314;10.022;2023-06-26T13:56:08;7.50;;;1.90;;
20454;SDS011;10386;54.314;10.022;2023-06-26T13:58:35;9.88;;;2.30;;
20454;SDS011;10386;54.314;10.022;2023-06-26T14:01:03;3.10;;;1.60;;
20454;SDS011;10386;54.314;10.022;2023-06-26T14:03:31;10.10;;;1.90;;
20454;SDS011;10386;54.314;10.022;2023-06-26T14:05:58;5.30;;;1.70;;
20454;SDS011;10386;54.314;10.022;2023-06-26T14:08:25;4.82;;;1.90;;
20454;SDS011;10386;54.314;10.022;2023-06-26T14:10:52;5.32;;;2.10;;
20454;SDS011;10386;54.314;10.022;2023-06-26T14:13:18;7.28;;;2.00;;
20454;SDS011;10386;54.314;10.022;2023-06-26T14:15:49;9.27;;;2.08;;
20454;SDS011;10386;54.314;10.022;2023-06-26T14:18:19;5.57;;;1.80;;
20454;SDS011;10386;54.314;10.022;2023-06-26T14:20:47;3.83;;;1.70;;
20454;SDS011;10386;54.314;10.022;2023-06-26T14:23:14;5.85;;;2.05;;
20454;SDS011;10386;54.314;10.022;2023-06-26T14:25:41;3.58;;;1.60;;
20454;SDS011;10386;54.314;10.022;2023-06-26T14:28:08;5.47;;;1.70;;
20454;SDS011;10386;54.314;10.022;2023-06-26T14:30:35;5.30;;;2.28;;
20454;SDS011;10386;54.314;10.022;2023-06-26T14:33:02;7.55;;;1.98;;
20454;SDS011;10386;54.314;10.022;2023-06-26T14:35:29;8.63;;;1.92;;
20454;SDS011;10386;54.314;10.022;2023-06-26T14:37:56;5.47;;;2.03;;
20454;SDS011;10386;54.314;10.022;2023-06-26T14:40:22;6.78;;;2.00;;
20454;SDS011;10386;54.314;10.022;2023-06-26T14:42:50;2.55;;;1.63;;
20454;SDS011;10386;54.314;10.022;2023-06-26T14:45:17;5.55;;;1.90;;
20454;SDS011;10386;54.314;10.022;2023-06-26T14:47:44;2.05;;;1.48;;